sensor_id;sensor_type;location;lat;lon;timestamp;P1;durP1;ratioP1;P2;durP2;ratioP2
25249;SDS011;13201;51.148;13.738;2022-08-21T00:01:22;28.13;;;17.08;;
25249;SDS011;13201;51.148;13.738;2022-08-21T00:03:50;25.95;;;16.48;;
25249;SDS011;13201;51.148;13.738;2022-08-21T00:06:16;26.38;;;17.15;;
25249;SDS011;13201;51.148;13.738;2022-08-21T00:08:42;27.05;;;16.48;;
25249;SDS011;13201;51.148;13.738;2022-08-21T00:11:08;29.67;;;17.43;;
25249;SDS011;13201;51.148;13.738;2022-08-21T00:13:34;30.27;;;18.17;;
25249;SDS011;13201;51.148;13.738;2022-08-21T00:16:00;30.13;;;18.15;;
25249;SDS011;13201;51.148;13.738;2022-08-21T00:18:26;28.27;;;16.90;;
25249;SDS011;13201;51.148;13.738;2022-08-21T00:20:51;29.08;;;17.35;;
25249;SDS011;13201;51.148;13.738;2022-08-21T00:23:18;29.65;;;17.48;;
25249;SDS011;13201;51.148;13.738;2022-08-21T00:25:44;26.92;;;17.23;;
25249;SDS011;13201;51.148;13.738;2022-08-21T00:28:09;27.80;;;17.10;;
25249;SDS011;13201;51.148;13.738;2022-08-21T00:30:36;28.73;;;17.75;;
25249;SDS011;13201;51.148;13.738;2022-08-21T00:33:03;29.35;;;18.00;;
25249;SDS011;13201;51.148;13.738;2022-08-21T00:35:35;31.77;;;18.57;;
25249;SDS011;13201;51.148;13.738;2022-08-21T00:38:04;31.35;;;18.27;;
25249;SDS011;13201;51.148;13.738;2022-08-21T00:40:34;30.80;;;18.20;;
25249;SDS011;13201;51.148;13.738;2022-08-21T00:43:03;31.73;;;18.50;;
25249;SDS011;13201;51.148;13.738;2022-08-21T00:45:30;32.80;;;18.98;;
25249;SDS011;13201;51.148;13.738;2022-08-21T00:47:57;29.23;;;18.00;;
25249;SDS011;13201;51.148;13.738;2022-08-21T00:50:24;33.13;;;19.03;;
25249;SDS011;13201;51.148;13.738;2022-08-21T00:52:53;29.48;;;18.02;;
25249;SDS011;13201;51.148;13.738;2022-08-21T00:55:20;26.40;;;16.88;;
25249;SDS011;13201;51.148;13.738;2022-08-21T00:57:48;28.05;;;17.38;;
25249;SDS011;13201;51.148;13.738;2022-08-21T01:00:19;27.15;;;16.30;;
25249;SDS011;13201;51.148;13.738;2022-08-21T01:02:47;24.00;;;15.35;;
25249;SDS011;13201;51.148;13.738;2022-08-21T01:05:13;21.73;;;13.85;;
25249;SDS011;13201;51.148;13.738;2022-08-21T01:32:19;11.55;;;7.05;;
25249;SDS011;13201;51.148;13.738;2022-08-21T01:34:45;11.07;;;7.43;;
25249;SDS011;13201;51.148;13.738;2022-08-21T01:37:13;11.90;;;8.27;;
25249;SDS011;13201;51.148;13.738;2022-08-21T01:39:39;14.57;;;9.18;;
25249;SDS011;13201;51.148;13.738;2022-08-21T01:42:06;13.40;;;8.77;;
25249;SDS011;13201;51.148;13.738;2022-08-21T01:44:32;15.13;;;9.43;;
25249;SDS011;13201;51.148;13.738;2022-08-21T01:46:59;12.40;;;8.38;;
25249;SDS011;13201;51.148;13.738;2022-08-21T01:49:28;11.43;;;7.60;;
25249;SDS011;13201;51.148;13.738;2022-08-21T01:51:53;13.75;;;8.57;;
25249;SDS011;13201;51.148;13.738;2022-08-21T01:54:19;11.98;;;7.32;;
25249;SDS011;13201;51.148;13.738;2022-08-21T01:56:46;9.48;;;6.88;;
25249;SDS011;13201;51.148;13.738;2022-08-21T01:59:13;11.05;;;7.07;;
25249;SDS011;13201;51.148;13.738;2022-08-21T02:01:40;10.27;;;7.13;;
25249;SDS011;13201;51.148;13.738;2022-08-21T02:04:06;8.40;;;6.00;;
25249;SDS011;13201;51.148;13.738;2022-08-21T02:06:33;10.70;;;7.30;;
25249;SDS011;13201;51.148;13.738;2022-08-21T02:08:59;10.32;;;6.93;;
25249;SDS011;13201;51.148;13.738;2022-08-21T02:11:26;9.90;;;7.00;;
25249;SDS011;13201;51.148;13.738;2022-08-21T02:13:51;10.32;;;6.80;;
25249;SDS011;13201;51.148;13.738;2022-08-21T02:16:17;10.02;;;7.07;;
25249;SDS011;13201;51.148;13.738;2022-08-21T02:18:43;10.25;;;7.03;;
25249;SDS011;13201;51.148;13.738;2022-08-21T02:21:08;9.32;;;6.80;;
25249;SDS011;13201;51.148;13.738;2022-08-21T02:23:34;11.70;;;7.57;;
25249;SDS011;13201;51.148;13.738;2022-08-21T02:26:02;11.55;;;7.22;;
25249;SDS011;13201;51.148;13.738;2022-08-21T02:28:31;9.68;;;7.05;;
25249;SDS011;13201;51.148;13.738;2022-08-21T02:30:58;10.20;;;7.15;;
25249;SDS011;13201;51.148;13.738;2022-08-21T02:33:23;12.20;;;8.45;;
25249;SDS011;13201;51.148;13.738;2022-08-21T02:35:51;9.68;;;7.10;;
25249;SDS011;13201;51.148;13.738;2022-08-21T02:38:23;15.18;;;7.57;;
25249;SDS011;13201;51.148;13.738;2022-08-21T02:40:51;11.27;;;8.02;;
25249;SDS011;13201;51.148;13.738;2022-08-21T02:43:18;10.77;;;7.63;;
25249;SDS011;13201;51.148;13.738;2022-08-21T02:45:46;12.50;;;7.70;;
25249;SDS011;13201;51.148;13.738;2022-08-21T02:48:14;11.45;;;7.88;;
25249;SDS011;13201;51.148;13.738;2022-08-21T02:50:47;12.32;;;7.65;;
25249;SDS011;13201;51.148;13.738;2022-08-21T02:53:16;11.88;;;7.53;;
25249;SDS011;13201;51.148;13.738;2022-08-21T02:55:42;10.13;;;7.73;;
25249;SDS011;13201;51.148;13.738;2022-08-21T02:58:09;11.02;;;7.95;;
25249;SDS011;13201;51.148;13.738;2022-08-21T03:00:36;11.27;;;7.60;;
25249;SDS011;13201;51.148;13.738;2022-08-21T03:03:03;11.75;;;7.45;;
25249;SDS011;13201;51.148;13.738;2022-08-21T03:05:31;11.38;;;7.43;;
25249;SDS011;13201;51.148;13.738;2022-08-21T03:07:58;11.70;;;8.43;;
25249;SDS011;13201;51.148;13.738;2022-08-21T03:10:25;11.98;;;8.07;;
25249;SDS011;13201;51.148;13.738;2022-08-21T03:12:51;13.95;;;8.95;;
25249;SDS011;13201;51.148;13.738;2022-08-21T03:15:19;14.43;;;8.60;;
25249;SDS011;13201;51.148;13.738;2022-08-21T03:17:46;12.15;;;8.75;;
25249;SDS011;13201;51.148;13.738;2022-08-21T03:20:13;15.25;;;9.63;;
25249;SDS011;13201;51.148;13.738;2022-08-21T03:22:41;14.07;;;8.80;;
25249;SDS011;13201;51.148;13.738;2022-08-21T03:25:06;14.65;;;9.60;;
25249;SDS011;13201;51.148;13.738;2022-08-21T03:27:33;15.52;;;9.73;;
25249;SDS011;13201;51.148;13.738;2022-08-21T03:29:59;13.90;;;8.82;;
25249;SDS011;13201;51.148;13.738;2022-08-21T03:32:25;16.63;;;9.90;;
25249;SDS011;13201;51.148;13.738;2022-08-21T03:34:51;15.43;;;10.10;;
25249;SDS011;13201;51.148;13.738;2022-08-21T03:37:17;18.70;;;10.88;;
25249;SDS011;13201;51.148;13.738;2022-08-21T03:39:43;15.80;;;10.07;;
25249;SDS011;13201;51.148;13.738;2022-08-21T03:42:09;15.50;;;10.23;;
25249;SDS011;13201;51.148;13.738;2022-08-21T03:44:36;14.57;;;9.13;;
25249;SDS011;13201;51.148;13.738;2022-08-21T03:47:02;11.73;;;8.13;;
25249;SDS011;13201;51.148;13.738;2022-08-21T03:49:28;14.23;;;9.13;;
25249;SDS011;13201;51.148;13.738;2022-08-21T03:51:54;12.50;;;8.23;;
25249;SDS011;13201;51.148;13.738;2022-08-21T03:54:20;10.48;;;7.72;;
25249;SDS011;13201;51.148;13.738;2022-08-21T03:56:46;11.13;;;7.90;;
25249;SDS011;13201;51.148;13.738;2022-08-21T03:59:12;14.32;;;8.15;;
25249;SDS011;13201;51.148;13.738;2022-08-21T04:01:38;12.88;;;8.05;;
25249;SDS011;13201;51.148;13.738;2022-08-21T04:04:04;11.73;;;7.65;;
25249;SDS011;13201;51.148;13.738;2022-08-21T04:06:30;11.35;;;7.25;;
25249;SDS011;13201;51.148;13.738;2022-08-21T04:08:56;12.88;;;7.82;;
25249;SDS011;13201;51.148;13.738;2022-08-21T04:11:21;10.85;;;7.60;;
25249;SDS011;13201;51.148;13.738;2022-08-21T04:13:47;16.00;;;8.73;;
25249;SDS011;13201;51.148;13.738;2022-08-21T04:16:13;13.27;;;8.20;;
25249;SDS011;13201;51.148;13.738;2022-08-21T04:18:39;12.13;;;7.90;;
25249;SDS011;13201;51.148;13.738;2022-08-21T04:21:05;11.00;;;7.88;;
25249;SDS011;13201;51.148;13.738;2022-08-21T04:23:32;11.55;;;7.78;;
25249;SDS011;13201;51.148;13.738;2022-08-21T04:25:58;10.40;;;7.38;;
25249;SDS011;13201;51.148;13.738;2022-08-21T04:28:24;13.60;;;8.52;;
25249;SDS011;13201;51.148;13.738;2022-08-21T04:30:52;12.45;;;8.05;;
25249;SDS011;13201;51.148;13.738;2022-08-21T04:33:18;12.98;;;7.85;;
25249;SDS011;13201;51.148;13.738;2022-08-21T04:35:45;11.80;;;8.27;;
25249;SDS011;13201;51.148;13.738;2022-08-21T04:38:12;14.07;;;8.32;;
25249;SDS011;13201;51.148;13.738;2022-08-21T04:40:37;13.00;;;8.38;;
25249;SDS011;13201;51.148;13.738;2022-08-21T04:43:04;14.43;;;9.27;;
25249;SDS011;13201;51.148;13.738;2022-08-21T04:45:32;13.05;;;8.77;;
25249;SDS011;13201;51.148;13.738;2022-08-21T04:48:00;12.23;;;8.82;;
25249;SDS011;13201;51.148;13.738;2022-08-21T04:50:34;15.38;;;8.50;;
25249;SDS011;13201;51.148;13.738;2022-08-21T04:53:01;12.93;;;9.23;;
25249;SDS011;13201;51.148;13.738;2022-08-21T04:57:54;14.10;;;9.27;;
25249;SDS011;13201;51.148;13.738;2022-08-21T05:00:22;12.18;;;8.57;;
25249;SDS011;13201;51.148;13.738;2022-08-21T05:02:49;16.50;;;10.23;;
25249;SDS011;13201;51.148;13.738;2022-08-21T05:05:19;19.42;;;10.90;;
25249;SDS011;13201;51.148;13.738;2022-08-21T05:07:45;18.45;;;10.35;;
25249;SDS011;13201;51.148;13.738;2022-08-21T05:10:12;15.63;;;10.52;;
25249;SDS011;13201;51.148;13.738;2022-08-21T05:12:39;17.75;;;11.13;;
25249;SDS011;13201;51.148;13.738;2022-08-21T05:15:07;16.38;;;11.35;;
25249;SDS011;13201;51.148;13.738;2022-08-21T05:17:34;15.15;;;10.48;;
25249;SDS011;13201;51.148;13.738;2022-08-21T05:19:59;16.38;;;11.23;;
25249;SDS011;13201;51.148;13.738;2022-08-21T05:22:25;19.88;;;11.98;;
25249;SDS011;13201;51.148;13.738;2022-08-21T05:24:51;17.73;;;11.75;;
25249;SDS011;13201;51.148;13.738;2022-08-21T05:27:17;21.98;;;12.68;;
25249;SDS011;13201;51.148;13.738;2022-08-21T05:29:43;18.38;;;11.77;;
25249;SDS011;13201;51.148;13.738;2022-08-21T05:32:12;17.00;;;11.90;;
25249;SDS011;13201;51.148;13.738;2022-08-21T05:34:38;20.75;;;12.27;;
25249;SDS011;13201;51.148;13.738;2022-08-21T05:37:04;19.60;;;12.75;;
25249;SDS011;13201;51.148;13.738;2022-08-21T05:39:30;17.17;;;11.65;;
25249;SDS011;13201;51.148;13.738;2022-08-21T05:41:56;19.47;;;11.97;;
25249;SDS011;13201;51.148;13.738;2022-08-21T05:44:21;18.27;;;11.65;;
25249;SDS011;13201;51.148;13.738;2022-08-21T05:46:47;16.77;;;12.10;;
25249;SDS011;13201;51.148;13.738;2022-08-21T05:49:13;20.20;;;13.20;;
25249;SDS011;13201;51.148;13.738;2022-08-21T05:51:39;18.92;;;12.45;;
25249;SDS011;13201;51.148;13.738;2022-08-21T05:54:06;19.17;;;11.68;;
25249;SDS011;13201;51.148;13.738;2022-08-21T05:56:32;17.93;;;12.60;;
25249;SDS011;13201;51.148;13.738;2022-08-21T05:58:58;16.88;;;11.68;;
25249;SDS011;13201;51.148;13.738;2022-08-21T06:01:24;19.25;;;12.07;;
25249;SDS011;13201;51.148;13.738;2022-08-21T06:03:49;18.27;;;12.00;;
25249;SDS011;13201;51.148;13.738;2022-08-21T06:06:15;18.13;;;11.90;;
25249;SDS011;13201;51.148;13.738;2022-08-21T06:08:41;16.33;;;11.15;;
25249;SDS011;13201;51.148;13.738;2022-08-21T06:11:08;19.80;;;11.10;;
25249;SDS011;13201;51.148;13.738;2022-08-21T06:13:35;17.85;;;11.27;;
25249;SDS011;13201;51.148;13.738;2022-08-21T06:16:05;19.48;;;11.52;;
25249;SDS011;13201;51.148;13.738;2022-08-21T06:18:36;16.50;;;11.30;;
25249;SDS011;13201;51.148;13.738;2022-08-21T06:21:03;14.23;;;10.40;;
25249;SDS011;13201;51.148;13.738;2022-08-21T06:23:30;14.80;;;10.35;;
25249;SDS011;13201;51.148;13.738;2022-08-21T06:25:56;13.90;;;10.33;;
25249;SDS011;13201;51.148;13.738;2022-08-21T06:28:22;13.07;;;10.37;;
25249;SDS011;13201;51.148;13.738;2022-08-21T06:30:47;15.20;;;10.25;;
25249;SDS011;13201;51.148;13.738;2022-08-21T06:33:13;16.05;;;10.95;;
25249;SDS011;13201;51.148;13.738;2022-08-21T06:35:39;13.48;;;10.10;;
25249;SDS011;13201;51.148;13.738;2022-08-21T06:38:05;15.02;;;10.35;;
25249;SDS011;13201;51.148;13.738;2022-08-21T06:40:31;12.40;;;9.82;;
25249;SDS011;13201;51.148;13.738;2022-08-21T06:43:04;16.80;;;10.30;;
25249;SDS011;13201;51.148;13.738;2022-08-21T06:45:31;14.88;;;9.80;;
25249;SDS011;13201;51.148;13.738;2022-08-21T06:47:57;13.65;;;10.00;;
25249;SDS011;13201;51.148;13.738;2022-08-21T06:50:23;17.40;;;10.57;;
25249;SDS011;13201;51.148;13.738;2022-08-21T06:52:49;27.02;;;16.95;;
25249;SDS011;13201;51.148;13.738;2022-08-21T06:55:14;14.57;;;10.07;;
25249;SDS011;13201;51.148;13.738;2022-08-21T06:57:40;17.58;;;11.45;;
25249;SDS011;13201;51.148;13.738;2022-08-21T07:00:06;18.10;;;10.65;;
25249;SDS011;13201;51.148;13.738;2022-08-21T07:02:34;14.13;;;10.65;;
25249;SDS011;13201;51.148;13.738;2022-08-21T07:04:59;13.50;;;10.48;;
25249;SDS011;13201;51.148;13.738;2022-08-21T07:07:26;17.02;;;10.70;;
25249;SDS011;13201;51.148;13.738;2022-08-21T07:09:51;16.15;;;11.15;;
25249;SDS011;13201;51.148;13.738;2022-08-21T07:12:17;12.93;;;10.32;;
25249;SDS011;13201;51.148;13.738;2022-08-21T07:14:42;15.63;;;10.40;;
25249;SDS011;13201;51.148;13.738;2022-08-21T07:17:08;13.02;;;9.88;;
25249;SDS011;13201;51.148;13.738;2022-08-21T07:19:34;17.20;;;10.77;;
25249;SDS011;13201;51.148;13.738;2022-08-21T07:22:00;14.10;;;10.57;;
25249;SDS011;13201;51.148;13.738;2022-08-21T07:24:28;13.90;;;10.13;;
25249;SDS011;13201;51.148;13.738;2022-08-21T07:26:54;14.32;;;10.55;;
25249;SDS011;13201;51.148;13.738;2022-08-21T07:29:20;13.13;;;10.13;;
25249;SDS011;13201;51.148;13.738;2022-08-21T07:31:46;13.05;;;9.98;;
25249;SDS011;13201;51.148;13.738;2022-08-21T07:34:12;14.88;;;10.85;;
25249;SDS011;13201;51.148;13.738;2022-08-21T07:36:38;12.85;;;10.18;;
25249;SDS011;13201;51.148;13.738;2022-08-21T07:39:03;15.43;;;10.27;;
25249;SDS011;13201;51.148;13.738;2022-08-21T07:41:29;13.60;;;9.80;;
25249;SDS011;13201;51.148;13.738;2022-08-21T07:43:56;14.50;;;9.95;;
25249;SDS011;13201;51.148;13.738;2022-08-21T07:46:23;13.80;;;9.73;;
25249;SDS011;13201;51.148;13.738;2022-08-21T07:48:49;13.38;;;9.43;;
25249;SDS011;13201;51.148;13.738;2022-08-21T07:51:16;10.88;;;9.50;;
25249;SDS011;13201;51.148;13.738;2022-08-21T07:53:47;13.07;;;9.45;;
25249;SDS011;13201;51.148;13.738;2022-08-21T07:56:17;12.75;;;9.02;;
25249;SDS011;13201;51.148;13.738;2022-08-21T07:58:43;12.13;;;9.87;;
25249;SDS011;13201;51.148;13.738;2022-08-21T08:01:08;13.27;;;9.05;;
25249;SDS011;13201;51.148;13.738;2022-08-21T08:03:35;13.13;;;9.50;;
25249;SDS011;13201;51.148;13.738;2022-08-21T08:06:01;13.88;;;9.55;;
25249;SDS011;13201;51.148;13.738;2022-08-21T08:08:29;11.48;;;8.85;;
25249;SDS011;13201;51.148;13.738;2022-08-21T08:10:56;12.40;;;9.05;;
25249;SDS011;13201;51.148;13.738;2022-08-21T08:13:23;12.25;;;8.80;;
25249;SDS011;13201;51.148;13.738;2022-08-21T08:15:48;12.15;;;9.52;;
25249;SDS011;13201;51.148;13.738;2022-08-21T08:18:15;13.20;;;9.90;;
25249;SDS011;13201;51.148;13.738;2022-08-21T08:20:41;11.38;;;9.27;;
25249;SDS011;13201;51.148;13.738;2022-08-21T08:23:10;12.32;;;8.60;;
25249;SDS011;13201;51.148;13.738;2022-08-21T08:25:36;11.90;;;8.48;;
25249;SDS011;13201;51.148;13.738;2022-08-21T08:28:03;10.20;;;7.55;;
25249;SDS011;13201;51.148;13.738;2022-08-21T08:30:30;13.32;;;9.00;;
25249;SDS011;13201;51.148;13.738;2022-08-21T08:32:55;13.05;;;8.38;;
25249;SDS011;13201;51.148;13.738;2022-08-21T08:35:22;13.05;;;8.77;;
25249;SDS011;13201;51.148;13.738;2022-08-21T08:37:48;13.32;;;8.52;;
25249;SDS011;13201;51.148;13.738;2022-08-21T08:40:17;10.77;;;7.97;;
25249;SDS011;13201;51.148;13.738;2022-08-21T08:42:55;9.10;;;7.07;;
25249;SDS011;13201;51.148;13.738;2022-08-21T08:45:21;11.35;;;7.25;;
25249;SDS011;13201;51.148;13.738;2022-08-21T08:47:52;11.60;;;6.85;;
25249;SDS011;13201;51.148;13.738;2022-08-21T08:53:22;9.00;;;6.95;;
25249;SDS011;13201;51.148;13.738;2022-08-21T08:55:49;7.88;;;5.88;;
25249;SDS011;13201;51.148;13.738;2022-08-21T08:58:18;9.52;;;6.05;;
25249;SDS011;13201;51.148;13.738;2022-08-21T09:00:55;9.00;;;6.03;;
25249;SDS011;13201;51.148;13.738;2022-08-21T09:03:22;7.90;;;5.40;;
25249;SDS011;13201;51.148;13.738;2022-08-21T09:11:32;9.20;;;5.35;;
25249;SDS011;13201;51.148;13.738;2022-08-21T09:25:15;7.63;;;4.05;;
25249;SDS011;13201;51.148;13.738;2022-08-21T09:27:47;6.22;;;3.85;;
25249;SDS011;13201;51.148;13.738;2022-08-21T09:30:13;10.15;;;3.22;;
25249;SDS011;13201;51.148;13.738;2022-08-21T09:32:39;7.78;;;2.70;;
25249;SDS011;13201;51.148;13.738;2022-08-21T09:37:44;4.28;;;2.28;;
25249;SDS011;13201;51.148;13.738;2022-08-21T09:45:36;6.28;;;3.05;;
25249;SDS011;13201;51.148;13.738;2022-08-21T09:48:13;5.55;;;2.58;;
25249;SDS011;13201;51.148;13.738;2022-08-21T09:50:50;5.45;;;2.90;;
25249;SDS011;13201;51.148;13.738;2022-08-21T09:53:22;5.28;;;2.60;;
25249;SDS011;13201;51.148;13.738;2022-08-21T09:55:54;5.38;;;2.40;;
25249;SDS011;13201;51.148;13.738;2022-08-21T09:58:39;5.70;;;2.60;;
25249;SDS011;13201;51.148;13.738;2022-08-21T10:01:11;6.00;;;2.20;;
25249;SDS011;13201;51.148;13.738;2022-08-21T10:03:42;4.57;;;2.38;;
25249;SDS011;13201;51.148;13.738;2022-08-21T10:06:09;4.88;;;2.35;;
25249;SDS011;13201;51.148;13.738;2022-08-21T10:08:36;4.30;;;1.92;;
25249;SDS011;13201;51.148;13.738;2022-08-21T10:11:13;7.03;;;2.28;;
25249;SDS011;13201;51.148;13.738;2022-08-21T10:27:17;7.22;;;2.72;;
25249;SDS011;13201;51.148;13.738;2022-08-21T10:29:57;7.95;;;2.50;;
25249;SDS011;13201;51.148;13.738;2022-08-21T10:38:15;6.03;;;2.10;;
25249;SDS011;13201;51.148;13.738;2022-08-21T10:46:32;4.38;;;2.13;;
25249;SDS011;13201;51.148;13.738;2022-08-21T10:55:04;5.18;;;1.85;;
25249;SDS011;13201;51.148;13.738;2022-08-21T10:57:58;4.60;;;1.50;;
25249;SDS011;13201;51.148;13.738;2022-08-21T11:00:40;5.50;;;1.83;;
25249;SDS011;13201;51.148;13.738;2022-08-21T11:03:11;3.22;;;1.60;;
25249;SDS011;13201;51.148;13.738;2022-08-21T11:05:41;3.30;;;1.60;;
25249;SDS011;13201;51.148;13.738;2022-08-21T11:10:50;3.38;;;1.30;;
25249;SDS011;13201;51.148;13.738;2022-08-21T11:16:05;2.72;;;1.33;;
25249;SDS011;13201;51.148;13.738;2022-08-21T11:18:59;3.53;;;1.65;;
25249;SDS011;13201;51.148;13.738;2022-08-21T11:21:50;2.50;;;1.25;;
25249;SDS011;13201;51.148;13.738;2022-08-21T11:27:18;4.20;;;1.50;;
25249;SDS011;13201;51.148;13.738;2022-08-21T11:30:01;5.28;;;1.63;;
25249;SDS011;13201;51.148;13.738;2022-08-21T11:32:50;3.22;;;1.58;;
25249;SDS011;13201;51.148;13.738;2022-08-21T11:38:40;4.10;;;2.40;;
25249;SDS011;13201;51.148;13.738;2022-08-21T11:51:58;5.18;;;1.70;;
25249;SDS011;13201;51.148;13.738;2022-08-21T11:54:39;6.35;;;1.50;;
25249;SDS011;13201;51.148;13.738;2022-08-21T11:57:32;3.40;;;1.23;;
25249;SDS011;13201;51.148;13.738;2022-08-21T12:02:35;5.97;;;1.42;;
25249;SDS011;13201;51.148;13.738;2022-08-21T12:05:22;4.63;;;1.42;;
25249;SDS011;13201;51.148;13.738;2022-08-21T12:10:38;7.63;;;1.30;;
25249;SDS011;13201;51.148;13.738;2022-08-21T12:13:28;5.32;;;1.52;;
25249;SDS011;13201;51.148;13.738;2022-08-21T12:16:06;2.75;;;1.38;;
25249;SDS011;13201;51.148;13.738;2022-08-21T12:18:33;12.75;;;7.05;;
25249;SDS011;13201;51.148;13.738;2022-08-21T12:26:28;4.32;;;1.05;;
25249;SDS011;13201;51.148;13.738;2022-08-21T12:31:53;3.95;;;1.35;;
25249;SDS011;13201;51.148;13.738;2022-08-21T12:36:58;1.50;;;0.95;;
25249;SDS011;13201;51.148;13.738;2022-08-21T12:39:29;2.28;;;0.80;;
25249;SDS011;13201;51.148;13.738;2022-08-21T12:42:31;2.67;;;1.20;;
25249;SDS011;13201;51.148;13.738;2022-08-21T12:45:04;1.87;;;0.77;;
25249;SDS011;13201;51.148;13.738;2022-08-21T12:47:48;4.60;;;1.02;;
25249;SDS011;13201;51.148;13.738;2022-08-21T12:50:21;2.08;;;1.15;;
25249;SDS011;13201;51.148;13.738;2022-08-21T12:56:08;3.20;;;1.20;;
25249;SDS011;13201;51.148;13.738;2022-08-21T12:58:39;3.78;;;1.63;;
25249;SDS011;13201;51.148;13.738;2022-08-21T13:01:07;4.30;;;1.38;;
25249;SDS011;13201;51.148;13.738;2022-08-21T13:03:42;4.43;;;1.23;;
25249;SDS011;13201;51.148;13.738;2022-08-21T13:06:12;2.72;;;1.30;;
25249;SDS011;13201;51.148;13.738;2022-08-21T13:08:41;3.28;;;1.10;;
25249;SDS011;13201;51.148;13.738;2022-08-21T13:11:08;3.33;;;1.10;;
25249;SDS011;13201;51.148;13.738;2022-08-21T13:13:35;5.60;;;1.25;;
25249;SDS011;13201;51.148;13.738;2022-08-21T13:16:03;1.70;;;1.07;;
25249;SDS011;13201;51.148;13.738;2022-08-21T13:18:31;2.80;;;1.20;;
25249;SDS011;13201;51.148;13.738;2022-08-21T13:21:09;1.35;;;0.80;;
25249;SDS011;13201;51.148;13.738;2022-08-21T13:23:37;4.68;;;1.30;;
25249;SDS011;13201;51.148;13.738;2022-08-21T13:26:13;4.17;;;1.07;;
25249;SDS011;13201;51.148;13.738;2022-08-21T13:28:40;1.73;;;1.02;;
25249;SDS011;13201;51.148;13.738;2022-08-21T13:31:07;3.35;;;1.08;;
25249;SDS011;13201;51.148;13.738;2022-08-21T13:33:35;3.30;;;1.20;;
25249;SDS011;13201;51.148;13.738;2022-08-21T13:38:33;2.45;;;1.10;;
25249;SDS011;13201;51.148;13.738;2022-08-21T13:41:04;2.42;;;1.27;;
25249;SDS011;13201;51.148;13.738;2022-08-21T13:43:56;3.03;;;1.30;;
25249;SDS011;13201;51.148;13.738;2022-08-21T13:46:52;1.73;;;1.10;;
25249;SDS011;13201;51.148;13.738;2022-08-21T13:49:20;3.42;;;1.33;;
25249;SDS011;13201;51.148;13.738;2022-08-21T13:51:50;3.55;;;1.10;;
25249;SDS011;13201;51.148;13.738;2022-08-21T13:54:27;3.63;;;1.13;;
25249;SDS011;13201;51.148;13.738;2022-08-21T13:56:58;4.47;;;1.48;;
25249;SDS011;13201;51.148;13.738;2022-08-21T13:59:34;3.70;;;1.20;;
25249;SDS011;13201;51.148;13.738;2022-08-21T14:04:51;2.13;;;1.50;;
25249;SDS011;13201;51.148;13.738;2022-08-21T14:07:26;2.95;;;1.20;;
25249;SDS011;13201;51.148;13.738;2022-08-21T14:10:02;3.42;;;1.40;;
25249;SDS011;13201;51.148;13.738;2022-08-21T14:12:38;2.45;;;1.30;;
25249;SDS011;13201;51.148;13.738;2022-08-21T14:15:09;6.07;;;1.50;;
25249;SDS011;13201;51.148;13.738;2022-08-21T14:17:39;2.53;;;1.23;;
25249;SDS011;13201;51.148;13.738;2022-08-21T14:20:07;4.22;;;1.20;;
25249;SDS011;13201;51.148;13.738;2022-08-21T14:27:36;4.28;;;1.27;;
25249;SDS011;13201;51.148;13.738;2022-08-21T14:32:54;4.28;;;2.00;;
25249;SDS011;13201;51.148;13.738;2022-08-21T14:35:21;2.95;;;1.10;;
25249;SDS011;13201;51.148;13.738;2022-08-21T14:37:47;2.33;;;1.27;;
25249;SDS011;13201;51.148;13.738;2022-08-21T14:40:15;2.72;;;1.23;;
25249;SDS011;13201;51.148;13.738;2022-08-21T14:45:16;2.38;;;1.10;;
25249;SDS011;13201;51.148;13.738;2022-08-21T14:47:53;3.30;;;1.30;;
25249;SDS011;13201;51.148;13.738;2022-08-21T14:50:19;1.70;;;0.98;;
25249;SDS011;13201;51.148;13.738;2022-08-21T14:52:45;4.80;;;1.17;;
25249;SDS011;13201;51.148;13.738;2022-08-21T14:55:11;2.23;;;1.10;;
25249;SDS011;13201;51.148;13.738;2022-08-21T14:57:40;3.58;;;1.10;;
25249;SDS011;13201;51.148;13.738;2022-08-21T15:00:11;3.20;;;1.10;;
25249;SDS011;13201;51.148;13.738;2022-08-21T15:02:38;4.50;;;1.52;;
25249;SDS011;13201;51.148;13.738;2022-08-21T15:05:04;3.83;;;1.67;;
25249;SDS011;13201;51.148;13.738;2022-08-21T15:09:56;1.70;;;1.00;;
25249;SDS011;13201;51.148;13.738;2022-08-21T15:12:22;3.47;;;1.13;;
25249;SDS011;13201;51.148;13.738;2022-08-21T15:14:49;2.45;;;1.15;;
25249;SDS011;13201;51.148;13.738;2022-08-21T15:17:14;1.90;;;1.10;;
25249;SDS011;13201;51.148;13.738;2022-08-21T15:19:40;2.60;;;1.20;;
25249;SDS011;13201;51.148;13.738;2022-08-21T15:22:06;1.77;;;1.07;;
25249;SDS011;13201;51.148;13.738;2022-08-21T15:24:32;3.03;;;1.27;;
25249;SDS011;13201;51.148;13.738;2022-08-21T15:26:59;3.93;;;1.20;;
25249;SDS011;13201;51.148;13.738;2022-08-21T15:29:28;3.42;;;1.10;;
25249;SDS011;13201;51.148;13.738;2022-08-21T15:31:55;3.05;;;1.17;;
25249;SDS011;13201;51.148;13.738;2022-08-21T15:34:22;2.50;;;1.02;;
25249;SDS011;13201;51.148;13.738;2022-08-21T15:36:49;2.67;;;1.15;;
25249;SDS011;13201;51.148;13.738;2022-08-21T15:39:15;2.43;;;1.30;;
25249;SDS011;13201;51.148;13.738;2022-08-21T15:41:41;3.13;;;1.20;;
25249;SDS011;13201;51.148;13.738;2022-08-21T15:44:08;3.47;;;1.27;;
25249;SDS011;13201;51.148;13.738;2022-08-21T15:46:34;3.90;;;1.27;;
25249;SDS011;13201;51.148;13.738;2022-08-21T15:51:26;3.93;;;1.33;;
25249;SDS011;13201;51.148;13.738;2022-08-21T15:53:52;2.13;;;0.97;;
25249;SDS011;13201;51.148;13.738;2022-08-21T15:56:22;2.57;;;1.07;;
25249;SDS011;13201;51.148;13.738;2022-08-21T15:58:50;4.10;;;1.00;;
25249;SDS011;13201;51.148;13.738;2022-08-21T16:01:17;2.97;;;1.13;;
25249;SDS011;13201;51.148;13.738;2022-08-21T16:03:44;2.25;;;1.20;;
25249;SDS011;13201;51.148;13.738;2022-08-21T16:06:13;3.78;;;0.98;;
25249;SDS011;13201;51.148;13.738;2022-08-21T16:08:39;4.43;;;1.00;;
25249;SDS011;13201;51.148;13.738;2022-08-21T16:11:04;4.07;;;1.10;;
25249;SDS011;13201;51.148;13.738;2022-08-21T16:13:33;4.03;;;1.50;;
25249;SDS011;13201;51.148;13.738;2022-08-21T16:16:02;1.58;;;1.00;;
25249;SDS011;13201;51.148;13.738;2022-08-21T16:18:29;2.90;;;1.13;;
25249;SDS011;13201;51.148;13.738;2022-08-21T16:20:54;1.70;;;1.08;;
25249;SDS011;13201;51.148;13.738;2022-08-21T16:23:20;4.80;;;1.30;;
25249;SDS011;13201;51.148;13.738;2022-08-21T16:25:46;2.50;;;1.13;;
25249;SDS011;13201;51.148;13.738;2022-08-21T16:28:13;4.57;;;1.80;;
25249;SDS011;13201;51.148;13.738;2022-08-21T16:30:41;2.40;;;1.02;;
25249;SDS011;13201;51.148;13.738;2022-08-21T16:33:11;3.15;;;1.13;;
25249;SDS011;13201;51.148;13.738;2022-08-21T16:35:52;5.45;;;1.60;;
25249;SDS011;13201;51.148;13.738;2022-08-21T16:38:18;1.53;;;1.13;;
25249;SDS011;13201;51.148;13.738;2022-08-21T16:40:44;3.30;;;1.30;;
25249;SDS011;13201;51.148;13.738;2022-08-21T16:43:09;6.05;;;1.40;;
25249;SDS011;13201;51.148;13.738;2022-08-21T16:45:35;3.17;;;1.20;;
25249;SDS011;13201;51.148;13.738;2022-08-21T16:50:30;1.73;;;1.00;;
25249;SDS011;13201;51.148;13.738;2022-08-21T16:52:56;4.85;;;1.40;;
25249;SDS011;13201;51.148;13.738;2022-08-21T16:55:21;4.30;;;1.23;;
25249;SDS011;13201;51.148;13.738;2022-08-21T16:57:47;6.83;;;1.50;;
25249;SDS011;13201;51.148;13.738;2022-08-21T17:00:12;3.07;;;1.30;;
25249;SDS011;13201;51.148;13.738;2022-08-21T17:02:41;7.30;;;1.90;;